Flight Track Log - Related Links

Times and Time Zones

All times are in EDT time to prevent confusion due to time zone crossing. See the AWE9325 flight status page for this flight to view local times or setup timezone preferences in your user account.

Time Position Orientation Groundspeed Altitude Reporting Facility
EDT Latitude Longitude Course Direction KTS MPH feet Rate Location/Type
Sun 07:47:00 PM 33.9240 -118.0695 94° East  Level Estimated
Sun 07:48:00 PM 33.9176 -117.9566 94° East  Level Estimated
Sun 07:49:00 PM 33.9111 -117.8438 94° East  Level Estimated
Sun 07:50:00 PM 33.9046 -117.7310 94° East  Level Estimated
Sun 07:51:00 PM 33.8979 -117.6182 94° East  Level Estimated
Sun 07:52:00 PM 33.8911 -117.5055 94° East  Level Estimated
Sun 07:53:00 PM 33.8842 -117.3927 94° East  Level Estimated
Sun 07:54:00 PM 33.8772 -117.2800 94° East  Level Estimated
Sun 07:55:00 PM 33.8701 -117.1673 94° East  Level Estimated
Sun 07:56:00 PM 33.8629 -117.0546 94° East  Level Estimated
Sun 07:57:00 PM 33.8556 -116.9419 94° East  Level Estimated
Sun 07:58:00 PM 33.8482 -116.8293 94° East  Level Estimated
Sun 07:59:00 PM 33.8407 -116.7166 95° East  Level Estimated
Sun 08:00:00 PM 33.8331 -116.6040 95° East  Level Estimated
Sun 08:01:00 PM 33.8254 -116.4914 95° East  Level Estimated
Sun 08:02:00 PM 33.8176 -116.3789 95° East  Level Estimated
Sun 08:03:00 PM 33.8097 -116.2663 95° East  Level Estimated
Sun 08:04:00 PM 33.8017 -116.1538 95° East  Level Estimated
Sun 08:05:00 PM 33.7936 -116.0413 95° East  Level Estimated
Sun 08:06:00 PM 33.7853 -115.9288 95° East  Level Estimated
Sun 08:07:00 PM 33.7770 -115.8163 95° East  Level Estimated
Sun 08:08:00 PM 33.7686 -115.7039 95° East  Level Estimated
Sun 08:09:00 PM 33.7601 -115.5915 95° East  Level Estimated
Sun 08:10:00 PM 33.7514 -115.4790 95° East  Level Estimated
Sun 08:11:00 PM 33.7427 -115.3667 95° East  Level Estimated
Sun 08:12:00 PM 33.7339 -115.2543 95° East  Level Estimated
Sun 08:13:00 PM 33.7250 -115.1420 95° East  Level Estimated
Sun 08:14:00 PM 33.7159 -115.0297 95° East  Level Estimated
Sun 08:15:00 PM 33.7068 -114.9174 96° East  Level Estimated
Sun 08:16:00 PM 33.6976 -114.8051 96° East  Level Estimated
Sun 08:17:00 PM 33.6882 -114.6929 96° East  Level Estimated
Sun 08:18:00 PM 33.6788 -114.5807 96° East  Level Estimated
Sun 08:19:00 PM 33.6692 -114.4685 96° East  Level Estimated
Sun 08:20:00 PM 33.6596 -114.3563 96° East  Level Estimated
Sun 08:21:00 PM 33.6498 -114.2442 96° East  Level Estimated
Sun 08:22:00 PM 33.6400 -114.1321 96° East  Level Estimated
Sun 08:23:00 PM 33.6301 -114.0200 96° East  Level Estimated
Sun 08:24:00 PM 33.6193 -113.8995 96° East  Level Estimated
Sun 08:25:00 PM 33.6083 -113.7790 96° East  Level Estimated
Sun 08:26:00 PM 33.5973 -113.6586 96° East  Level Estimated
Sun 08:27:00 PM 33.5861 -113.5381 96° East  Level Estimated
Sun 08:28:00 PM 33.5748 -113.4178 96° East  Level Estimated
Sun 08:29:00 PM 33.5634 -113.2974 96° East  Level Estimated
Sun 08:30:00 PM 33.5519 -113.1771 97° East  Level Estimated
Sun 08:31:00 PM 33.5403 -113.0568 97° East  Level Estimated
Sun 08:32:00 PM 33.5286 -112.9365 97° East  Level Estimated
Sun 08:33:00 PM 33.5167 -112.8163 97° East  Level Estimated
Sun 08:34:00 PM 33.5047 -112.6961 97° East  Level Estimated
Sun 08:35:00 PM 33.4927 -112.5759 97° East  Level Estimated
Sun 08:36:00 PM 33.4804 -112.4558 97° East  Level Estimated
Sun 08:37:00 PM 33.4681 -112.3357 97° East  Level Estimated
Sun 08:38:00 PM 33.4557 -112.2156 97° East  Level Estimated
Sun 08:39:00 PM 33.4431 -112.0956 97° East  Level Estimated
Sun 08:40:00 PM 33.4343 -112.0116 97° East  Level Estimated
Sun 08:41:00 PM 33.4343 -112.0116 231° Southwest  Level Estimated
Sun 08:42:00 PM 33.4343 -112.0116 231° Southwest  Level Estimated
Sun 08:43:00 PM 33.4343 -112.0116 231° Southwest  Level Estimated
Sun 08:44:00 PM 33.4343 -112.0116 231° Southwest  Level Estimated

Login

Don't have an account? Register now (free) for customized features, flight alerts, and more!